Time;durP1;ratioP1;P1;durP2;ratioP2;P2;SDS_P1;SDS_P2;PMS_P1;PMS_P2;Temp;Humidity;BMP_temperature;BMP_pressure;BME280_temperature;BME280_humidity;BME280_pressure;Samples;Min_cycle;Max_cycle;Signal;HPM_P1;HPM_P2
2022/06/17 00:01:48;;;;;;;26.58;12.75;;;14.50;99.90;;;;;;5087776;28;20028;-79
2022/06/17 00:04:14;;;;;;;29.20;13.80;;;14.60;99.90;;;;;;5088811;28;20063;-81
2022/06/17 00:06:43;;;;;;;26.25;13.48;;;14.50;99.90;;;;;;5090105;28;20068;-79
2022/06/17 00:09:13;;;;;;;25.77;13.48;;;14.50;99.90;;;;;;5089752;28;20109;-80
2022/06/17 00:11:39;;;;;;;27.00;13.45;;;14.40;99.90;;;;;;5068765;28;20052;-79
2022/06/17 00:14:21;;;;;;;25.23;12.90;;;14.40;99.90;;;;;;5084994;28;20449;-81
2022/06/17 00:16:47;;;;;;;24.08;13.07;;;14.40;99.90;;;;;;5068770;28;20059;-80
2022/06/17 00:19:14;;;;;;;24.23;12.38;;;14.40;99.90;;;;;;5071644;28;20055;-82
2022/06/17 00:21:43;;;;;;;28.00;12.85;;;14.30;99.90;;;;;;5088343;28;20084;-76
2022/06/17 00:24:20;;;;;;;27.23;12.88;;;14.30;99.90;;;;;;5083965;28;20052;-82
2022/06/17 00:26:46;;;;;;;21.88;11.73;;;14.20;99.90;;;;;;5065100;28;20536;-80
2022/06/17 00:29:14;;;;;;;21.50;11.15;;;14.20;99.90;;;;;;5069724;28;20053;-80
2022/06/17 00:31:40;;;;;;;21.77;11.05;;;14.20;99.90;;;;;;5060921;28;20178;-77
2022/06/17 00:34:06;;;;;;;25.77;11.83;;;14.20;99.90;;;;;;5064730;28;20071;-80
2022/06/17 00:36:33;;;;;;;20.63;11.00;;;14.20;99.90;;;;;;5072765;28;20055;-78
2022/06/17 00:38:59;;;;;;;23.55;12.57;;;14.10;99.90;;;;;;5087706;28;20193;-80
2022/06/17 00:41:32;;;;;;;26.30;13.20;;;14.10;99.90;;;;;;5094448;28;20110;-80
2022/06/17 00:44:06;;;;;;;22.75;11.38;;;14.10;99.90;;;;;;5087896;28;20059;-80
2022/06/17 00:46:43;;;;;;;24.42;11.63;;;14.10;99.90;;;;;;5093216;28;20048;-78
2022/06/17 00:49:39;;;;;;;24.50;11.82;;;14.10;99.90;;;;;;5091296;28;20040;-79
2022/06/17 00:52:15;;;;;;;24.88;12.05;;;14.10;99.90;;;;;;5094548;28;20048;-78
2022/06/17 00:54:51;;;;;;;22.38;11.82;;;14.10;99.90;;;;;;5095812;28;20037;-77
2022/06/17 00:57:20;;;;;;;22.73;11.63;;;14.20;99.90;;;;;;5059275;28;20052;-79
2022/06/17 01:00:14;;;;;;;21.98;11.75;;;14.20;99.90;;;;;;5080314;28;20037;-79
2022/06/17 01:02:45;;;;;;;20.33;11.27;;;14.20;99.90;;;;;;5072632;28;20041;-80
2022/06/17 01:05:12;;;;;;;21.80;11.02;;;14.20;99.90;;;;;;5073447;28;20088;-81
2022/06/17 01:07:43;;;;;;;24.35;11.13;;;14.10;99.90;;;;;;5059495;28;20051;-80
2022/06/17 01:10:13;;;;;;;20.83;11.60;;;14.20;99.90;;;;;;5091429;28;20040;-77
2022/06/17 01:12:48;;;;;;;22.77;11.73;;;14.20;99.90;;;;;;5076338;28;20319;-81
2022/06/17 01:15:18;;;;;;;20.10;11.30;;;14.20;99.90;;;;;;5051988;28;20065;-79
2022/06/17 01:17:46;;;;;;;26.05;11.77;;;14.10;99.90;;;;;;5086382;28;20048;-78
2022/06/17 01:20:13;;;;;;;24.42;12.20;;;14.10;99.90;;;;;;5092092;28;20044;-80
2022/06/17 01:22:48;;;;;;;25.15;11.98;;;14.00;99.90;;;;;;5094608;28;20032;-78
2022/06/17 01:25:20;;;;;;;26.58;12.35;;;14.00;99.90;;;;;;5095570;28;20067;-78
2022/06/17 01:27:49;;;;;;;24.17;11.93;;;14.00;99.90;;;;;;5094186;28;20048;-76
2022/06/17 01:30:21;;;;;;;23.88;12.48;;;14.00;99.90;;;;;;5093902;28;20131;-80
2022/06/17 01:32:55;;;;;;;24.05;13.52;;;13.90;99.90;;;;;;5074888;28;20197;-77
2022/06/17 01:35:23;;;;;;;26.63;13.43;;;13.90;99.90;;;;;;5072357;28;20110;-80
2022/06/17 01:37:52;;;;;;;31.48;13.70;;;13.90;99.90;;;;;;5056629;28;20079;-78
2022/06/17 01:40:20;;;;;;;25.85;13.02;;;13.90;99.90;;;;;;5085278;28;20057;-77
2022/06/17 01:42:47;;;;;;;23.52;13.50;;;14.00;99.90;;;;;;5095598;28;20135;-80
2022/06/17 01:45:14;;;;;;;27.40;14.05;;;14.00;99.90;;;;;;5091752;28;20044;-79
2022/06/17 01:47:43;;;;;;;29.88;14.60;;;14.00;99.90;;;;;;5093445;28;20033;-79
2022/06/17 01:50:18;;;;;;;28.58;13.88;;;13.90;99.90;;;;;;5095835;28;20347;-78
2022/06/17 01:53:07;;;;;;;28.27;14.55;;;14.00;99.90;;;;;;5095113;28;20020;-79
2022/06/17 01:55:41;;;;;;;25.35;13.68;;;14.00;99.90;;;;;;5091547;28;20041;-80
2022/06/17 01:58:30;;;;;;;26.55;14.38;;;14.00;99.90;;;;;;5092804;28;20102;-79
2022/06/17 02:00:57;;;;;;;29.45;15.10;;;14.00;99.90;;;;;;5093482;28;20128;-80
2022/06/17 02:03:26;;;;;;;27.23;15.10;;;14.10;99.90;;;;;;5077090;28;20045;-80
2022/06/17 02:05:59;;;;;;;25.70;14.57;;;14.10;99.90;;;;;;5080140;28;20052;-77
2022/06/17 02:08:24;;;;;;;32.58;15.23;;;14.10;99.90;;;;;;5094432;28;20024;-79
2022/06/17 02:10:51;;;;;;;33.30;14.82;;;14.10;99.90;;;;;;5093399;28;20058;-77
2022/06/17 02:13:17;;;;;;;27.23;15.07;;;14.00;99.90;;;;;;5095017;28;20080;-78
2022/06/17 02:15:45;;;;;;;30.05;15.13;;;14.00;99.90;;;;;;5092375;28;20044;-79
2022/06/17 02:18:16;;;;;;;29.83;15.52;;;14.10;99.90;;;;;;5090951;28;20048;-80
2022/06/17 02:20:42;;;;;;;31.73;16.00;;;14.10;99.90;;;;;;5072873;28;20056;-79
2022/06/17 02:23:08;;;;;;;32.15;15.57;;;14.10;99.90;;;;;;5072332;28;20067;-80
2022/06/17 02:25:39;;;;;;;36.20;15.67;;;14.00;99.90;;;;;;5071476;28;20055;-80
2022/06/17 02:28:07;;;;;;;29.55;15.77;;;14.10;99.90;;;;;;5072667;28;20120;-81
2022/06/17 02:30:33;;;;;;;32.83;16.15;;;14.10;99.90;;;;;;5075373;28;20056;-79
2022/06/17 02:33:03;;;;;;;33.63;17.13;;;14.00;99.90;;;;;;5074599;28;20048;-80
2022/06/17 02:35:45;;;;;;;33.10;16.48;;;14.00;99.90;;;;;;5074864;28;20279;-77
2022/06/17 02:38:15;;;;;;;29.52;16.95;;;14.00;99.90;;;;;;5091533;28;20100;-78
2022/06/17 02:40:46;;;;;;;31.77;17.92;;;13.90;99.90;;;;;;5074479;28;20083;-78
2022/06/17 02:43:18;;;;;;;33.33;17.65;;;13.90;99.90;;;;;;5073756;28;20060;-79
2022/06/17 02:45:49;;;;;;;35.92;18.50;;;13.90;99.90;;;;;;5072291;28;20088;-78
2022/06/17 02:48:27;;;;;;;34.08;18.15;;;13.90;99.90;;;;;;5069970;28;20072;-78
2022/06/17 02:50:56;;;;;;;38.97;18.80;;;13.90;99.90;;;;;;5069453;28;20045;-79
2022/06/17 02:53:31;;;;;;;34.47;18.20;;;13.90;99.90;;;;;;5071804;28;20076;-80
2022/06/17 02:55:57;;;;;;;35.10;19.23;;;13.90;99.90;;;;;;5070992;28;20079;-77
2022/06/17 02:58:53;;;;;;;41.03;18.67;;;13.90;99.90;;;;;;5071953;28;20120;-80
2022/06/17 03:01:27;;;;;;;36.20;18.83;;;13.90;99.90;;;;;;5079408;28;20041;-80
2022/06/17 03:03:55;;;;;;;35.25;18.92;;;13.90;99.90;;;;;;5091846;28;20079;-80
2022/06/17 03:06:32;;;;;;;36.33;19.40;;;14.00;99.90;;;;;;5075873;28;20024;-79
2022/06/17 03:09:01;;;;;;;35.88;19.10;;;14.00;99.90;;;;;;5090894;28;20498;-78
2022/06/17 03:11:26;;;;;;;37.70;19.08;;;14.00;99.90;;;;;;5092259;28;20049;-80
2022/06/17 03:13:56;;;;;;;39.38;20.02;;;14.10;99.90;;;;;;5093885;28;20039;-79
2022/06/17 03:16:23;;;;;;;40.05;18.73;;;14.10;99.90;;;;;;5085109;28;20033;-78
2022/06/17 03:18:50;;;;;;;40.47;18.48;;;14.20;99.90;;;;;;5072743;28;20037;-79
2022/06/17 03:21:21;;;;;;;37.50;19.73;;;14.20;99.90;;;;;;5082047;28;20037;-79
2022/06/17 03:23:47;;;;;;;37.53;19.77;;;14.30;99.90;;;;;;5092129;28;20046;-79
2022/06/17 03:26:17;;;;;;;40.65;20.42;;;14.30;99.90;;;;;;5092262;28;20074;-79
2022/06/17 03:28:48;;;;;;;36.67;18.92;;;14.30;99.90;;;;;;5073706;28;20104;-78
2022/06/17 03:31:16;;;;;;;38.22;19.95;;;14.30;99.90;;;;;;5087936;28;20127;-79
2022/06/17 03:33:59;;;;;;;37.72;19.23;;;14.30;99.90;;;;;;5076295;28;20041;-80
2022/06/17 03:36:34;;;;;;;41.80;19.20;;;14.40;99.90;;;;;;5075631;28;20124;-79
2022/06/17 03:39:04;;;;;;;39.30;18.67;;;14.40;99.90;;;;;;5073512;28;20045;-78
2022/06/17 03:41:35;;;;;;;40.45;19.65;;;14.40;99.90;;;;;;5090264;28;20056;-80
2022/06/17 03:44:10;;;;;;;34.30;18.83;;;14.50;99.90;;;;;;5096346;28;20056;-77
2022/06/17 03:46:47;;;;;;;32.78;18.33;;;14.60;99.90;;;;;;5095068;28;20071;-78
2022/06/17 03:49:50;;;;;;;38.47;19.40;;;14.70;99.90;;;;;;5095888;28;20086;-80
2022/06/17 03:52:20;;;;;;;37.42;18.75;;;14.80;99.90;;;;;;5059863;28;20092;-80
2022/06/17 03:54:46;;;;;;;33.95;19.15;;;14.90;99.90;;;;;;5069022;28;20047;-80
2022/06/17 03:57:16;;;;;;;33.55;18.65;;;15.00;99.90;;;;;;5061808;28;20101;-80
2022/06/17 03:59:49;;;;;;;36.92;18.70;;;15.00;99.90;;;;;;5089257;28;21162;-80
2022/06/17 04:02:17;;;;;;;33.50;17.73;;;15.00;99.90;;;;;;5095390;28;20036;-79
2022/06/17 04:04:48;;;;;;;31.52;17.70;;;15.10;99.90;;;;;;5097045;28;20047;-78
2022/06/17 04:07:13;;;;;;;35.08;18.77;;;15.10;99.90;;;;;;5079223;28;20091;-79
2022/06/17 04:09:45;;;;;;;35.13;19.45;;;15.10;99.90;;;;;;5094911;28;20021;-80
2022/06/17 04:12:11;;;;;;;35.92;18.67;;;15.20;99.90;;;;;;5091773;28;20064;-79
2022/06/17 04:15:15;;;;;;;36.38;18.17;;;15.30;99.90;;;;;;5095918;28;20025;-78
2022/06/17 04:17:44;;;;;;;30.90;17.88;;;15.40;99.90;;;;;;5080883;28;20032;-79
2022/06/17 04:20:32;;;;;;;36.60;18.83;;;15.50;99.90;;;;;;5077600;28;20033;-77
2022/06/17 04:23:23;;;;;;;35.53;19.40;;;15.60;99.90;;;;;;5073705;28;20139;-79
2022/06/17 04:26:11;;;;;;;33.70;18.58;;;15.70;99.90;;;;;;5083832;28;20065;-79
2022/06/17 04:28:44;;;;;;;34.13;18.85;;;15.80;99.90;;;;;;5073943;28;20101;-80
2022/06/17 04:31:18;;;;;;;33.00;17.92;;;15.90;99.90;;;;;;5073401;28;20033;-81
2022/06/17 04:33:50;;;;;;;32.75;18.38;;;15.90;99.90;;;;;;5069814;28;20043;-80
2022/06/17 04:36:30;;;;;;;36.45;18.70;;;15.90;99.90;;;;;;5083411;28;20049;-82
2022/06/17 04:38:59;;;;;;;35.83;19.23;;;15.90;99.90;;;;;;5065557;28;20048;-81
2022/06/17 04:41:29;;;;;;;34.22;18.17;;;16.00;99.90;;;;;;5066124;28;20121;-79
2022/06/17 04:43:57;;;;;;;33.63;19.33;;;16.00;99.90;;;;;;5049178;28;20048;-81
2022/06/17 04:46:30;;;;;;;35.78;18.55;;;16.10;99.90;;;;;;5048839;28;20053;-81
2022/06/17 04:48:57;;;;;;;35.13;19.25;;;16.10;99.90;;;;;;5064961;28;20045;-80
2022/06/17 04:51:28;;;;;;;38.45;20.65;;;16.20;99.90;;;;;;5064700;28;20421;-81
2022/06/17 04:53:54;;;;;;;36.10;20.13;;;16.20;99.90;;;;;;5076942;28;20110;-80
2022/06/17 04:56:57;;;;;;;40.90;19.55;;;16.20;99.90;;;;;;5081664;28;20068;-81
2022/06/17 04:59:22;;;;;;;37.53;19.08;;;16.30;99.90;;;;;;4993619;28;20050;-80
2022/06/17 05:01:50;;;;;;;37.30;20.27;;;16.30;99.90;;;;;;5088459;28;20179;-80
2022/06/17 05:04:16;;;;;;;31.48;18.17;;;16.30;99.90;;;;;;5052001;28;20083;-80
2022/06/17 05:06:42;;;;;;;38.88;20.08;;;16.30;99.90;;;;;;5070072;28;20049;-79
2022/06/17 05:09:20;;;;;;;38.95;20.30;;;16.40;99.90;;;;;;5066963;28;20044;-78
2022/06/17 05:11:49;;;;;;;37.30;19.85;;;16.40;99.90;;;;;;5066324;28;20127;-79
2022/06/17 05:14:29;;;;;;;34.67;20.20;;;16.40;99.90;;;;;;5070133;28;20066;-80
2022/06/17 05:16:57;;;;;;;36.80;18.00;;;16.40;99.90;;;;;;5081973;28;20094;-79
2022/06/17 05:19:23;;;;;;;38.28;19.83;;;16.50;99.90;;;;;;5065896;28;20075;-81
2022/06/17 05:21:49;;;;;;;35.80;19.50;;;16.50;99.90;;;;;;5063532;28;20389;-80
2022/06/17 05:24:15;;;;;;;38.13;19.83;;;16.60;99.90;;;;;;5062563;28;20065;-79
2022/06/17 05:26:41;;;;;;;37.67;19.45;;;16.60;99.90;;;;;;5045417;28;20080;-81
2022/06/17 05:29:09;;;;;;;39.63;18.02;;;16.70;99.90;;;;;;5095924;28;20051;-79
2022/06/17 05:31:35;;;;;;;30.77;18.00;;;16.80;99.90;;;;;;5055989;28;20098;-79
2022/06/17 05:34:02;;;;;;;32.22;18.38;;;16.80;99.90;;;;;;5075715;28;20049;-79
2022/06/17 05:36:28;;;;;;;;;;;16.80;99.90;;;;;;5077694;28;20115;-80
2022/06/17 05:38:54;;;;;;;32.97;18.63;;;16.90;99.90;;;;;;5062012;28;19931;-79
2022/06/17 05:41:23;;;;;;;31.08;18.00;;;17.00;99.90;;;;;;5052871;28;20522;-81
2022/06/17 05:43:49;;;;;;;33.97;17.92;;;17.10;99.90;;;;;;5037721;28;20067;-80
2022/06/17 05:46:16;;;;;;;30.73;17.83;;;17.10;99.90;;;;;;5054756;28;20052;-79
2022/06/17 05:48:42;;;;;;;32.03;18.35;;;17.20;99.90;;;;;;5058920;28;20081;-80
2022/06/17 05:51:10;;;;;;;32.55;17.70;;;17.30;99.90;;;;;;5060919;28;20048;-81
2022/06/17 05:53:35;;;;;;;33.55;18.15;;;17.40;99.90;;;;;;5080750;28;20258;-79
2022/06/17 05:56:01;;;;;;;29.95;17.75;;;17.40;99.90;;;;;;5076941;28;20055;-79
2022/06/17 05:58:27;;;;;;;34.33;17.52;;;17.50;99.90;;;;;;5064612;28;20088;-80
2022/06/17 06:00:54;;;;;;;35.08;17.48;;;17.60;99.90;;;;;;5069568;28;20216;-80
2022/06/17 06:03:21;;;;;;;;;;;17.60;99.90;;;;;;5048737;28;20388;-82
2022/06/17 06:05:47;;;;;;;31.75;16.40;;;17.70;99.90;;;;;;5110986;28;19926;-80
2022/06/17 06:08:13;;;;;;;33.67;18.30;;;17.70;99.90;;;;;;5059799;28;20063;-78
2022/06/17 06:10:39;;;;;;;31.45;17.88;;;17.80;99.90;;;;;;5079014;28;20823;-80
2022/06/17 06:13:05;;;;;;;36.97;18.52;;;17.90;99.90;;;;;;5064269;28;20036;-80
2022/06/17 06:15:41;;;;;;;33.10;17.57;;;18.00;99.90;;;;;;5072788;28;20041;-81
2022/06/17 06:18:10;;;;;;;34.63;18.63;;;18.10;99.90;;;;;;5061617;28;20045;-81
2022/06/17 06:20:36;;;;;;;31.73;18.48;;;18.10;99.90;;;;;;5087968;28;20067;-80
2022/06/17 06:23:03;;;;;;;33.60;19.27;;;18.20;99.90;;;;;;5055310;28;20041;-80
2022/06/17 06:25:29;;;;;;;30.30;18.30;;;18.30;99.90;;;;;;5056395;28;20516;-82
2022/06/17 06:27:55;;;;;;;32.60;18.95;;;18.20;99.90;;;;;;5082157;28;20053;-80
2022/06/17 06:30:27;;;;;;;32.50;18.88;;;18.20;99.90;;;;;;5058661;28;20399;-83
2022/06/17 06:32:56;;;;;;;38.00;19.27;;;18.20;99.90;;;;;;5060331;28;20045;-81
2022/06/17 06:35:25;;;;;;;35.08;18.55;;;18.20;99.90;;;;;;5058796;28;20056;-81
2022/06/17 06:37:51;;;;;;;36.63;18.90;;;18.20;99.90;;;;;;5063893;28;20051;-80
2022/06/17 06:40:18;;;;;;;37.37;19.17;;;18.30;99.90;;;;;;5078171;28;20053;-79
2022/06/17 06:42:46;;;;;;;38.97;18.90;;;18.50;99.90;;;;;;5074623;28;20045;-82
2022/06/17 06:45:16;;;;;;;37.13;19.00;;;18.60;99.90;;;;;;5082580;28;20380;-81
2022/06/17 06:47:43;;;;;;;32.35;18.50;;;18.70;99.90;;;;;;5081608;28;20047;-81
2022/06/17 06:50:16;;;;;;;33.75;19.17;;;18.90;99.90;;;;;;5062485;28;20392;-82
2022/06/17 06:52:43;;;;;;;33.42;17.98;;;19.10;99.90;;;;;;5059851;28;20059;-82
2022/06/17 06:55:11;;;;;;;34.50;18.67;;;19.20;99.90;;;;;;5052912;28;20048;-81
2022/06/17 06:57:52;;;;;;;28.42;16.55;;;19.30;99.90;;;;;;5070816;28;20111;-79
2022/06/17 07:00:24;;;;;;;33.90;17.13;;;19.40;99.90;;;;;;5074307;28;20429;-78
2022/06/17 07:02:50;;;;;;;36.47;18.85;;;19.50;99.30;;;;;;5074438;28;20496;-79
2022/06/17 07:05:15;;;;;;;33.53;18.37;;;19.70;98.80;;;;;;5078845;28;20177;-81
2022/06/17 07:07:42;;;;;;;30.90;17.83;;;19.70;98.90;;;;;;5044105;28;20132;-77
2022/06/17 07:10:11;;;;;;;30.00;17.13;;;19.90;98.50;;;;;;5079899;28;20060;-81
2022/06/17 07:12:36;;;;;;;34.85;18.33;;;20.00;97.40;;;;;;5051079;28;20053;-82
2022/06/17 07:15:03;;;;;;;33.53;17.23;;;20.00;97.30;;;;;;5076953;28;20048;-79
2022/06/17 07:17:29;;;;;;;30.25;17.27;;;20.10;97.30;;;;;;5060004;28;20052;-81
2022/06/17 07:19:55;;;;;;;49.20;18.53;;;20.20;96.90;;;;;;5077733;28;20563;-81
2022/06/17 07:22:22;;;;;;;36.17;17.33;;;20.20;97.00;;;;;;5069244;28;20109;-79
2022/06/17 07:24:48;;;;;;;36.60;18.10;;;20.20;97.10;;;;;;5072865;28;20044;-80
2022/06/17 07:27:14;;;;;;;30.40;17.55;;;20.30;97.10;;;;;;5069804;28;20040;-81
2022/06/17 07:29:39;;;;;;;32.37;17.57;;;20.50;96.30;;;;;;5059063;28;20106;-80
2022/06/17 07:32:06;;;;;;;31.50;18.10;;;20.60;96.50;;;;;;5083775;28;20055;-78
2022/06/17 07:34:32;;;;;;;31.92;17.42;;;20.70;96.60;;;;;;5059290;28;20135;-81
2022/06/17 07:39:54;;;;;;;32.88;17.35;;;21.00;95.80;;;;;;5056009;28;20083;-81
2022/06/17 07:42:26;;;;;;;35.53;18.08;;;21.30;95.20;;;;;;5075362;28;20075;-78
2022/06/17 07:44:53;;;;;;;30.48;16.35;;;21.50;95.10;;;;;;5078762;28;20147;-79
2022/06/17 07:47:21;;;;;;;29.55;16.67;;;21.80;94.60;;;;;;5060800;28;20041;-79
2022/06/17 07:49:47;;;;;;;30.95;15.20;;;22.00;94.00;;;;;;5092472;28;20484;-79
2022/06/17 07:52:13;;;;;;;33.13;15.03;;;22.10;93.90;;;;;;5085058;28;20047;-79
2022/06/17 07:54:39;;;;;;;30.10;13.00;;;22.20;92.90;;;;;;5079987;28;20127;-76
2022/06/17 07:57:06;;;;;;;27.67;15.30;;;22.20;91.60;;;;;;5080378;28;20075;-82
2022/06/17 07:59:31;;;;;;;27.48;13.85;;;22.30;92.00;;;;;;5068034;28;20095;-82
2022/06/17 08:01:57;;;;;;;27.97;12.70;;;22.30;92.40;;;;;;5071434;28;20078;-80
2022/06/17 08:04:23;;;;;;;22.63;9.30;;;22.60;92.30;;;;;;5065336;28;20053;-78
2022/06/17 08:06:51;;;;;;;18.00;8.23;;;22.80;90.30;;;;;;5063170;28;20052;-79
2022/06/17 08:09:21;;;;;;;16.77;8.40;;;22.90;88.60;;;;;;5058698;28;20059;-79
2022/06/17 08:11:48;;;;;;;23.58;10.45;;;23.20;86.10;;;;;;5091064;28;20045;-80
2022/06/17 08:14:14;;;;;;;20.20;10.00;;;23.30;86.60;;;;;;5082192;28;20056;-79
2022/06/17 08:16:41;;;;;;;15.57;7.53;;;23.40;87.20;;;;;;5061316;28;20041;-83
2022/06/17 08:19:07;;;;;;;18.67;8.82;;;23.30;85.80;;;;;;5060312;28;20037;-80
2022/06/17 08:21:34;;;;;;;17.70;8.05;;;23.50;86.50;;;;;;5049441;28;20097;-83
2022/06/17 08:24:00;;;;;;;18.75;7.72;;;23.60;84.00;;;;;;5088612;28;20110;-80
2022/06/17 08:26:26;;;;;;;14.32;7.00;;;23.70;84.70;;;;;;5073956;28;20056;-79
2022/06/17 08:28:52;;;;;;;21.15;6.70;;;23.80;85.30;;;;;;5057115;28;20051;-78
2022/06/17 08:31:18;;;;;;;16.85;7.30;;;23.70;82.60;;;;;;5080516;28;20403;-82
2022/06/17 08:33:44;;;;;;;16.80;7.57;;;23.70;77.80;;;;;;5081799;28;20151;-80
2022/06/17 08:36:21;;;;;;;17.30;7.10;;;23.70;79.90;;;;;;5061530;28;20086;-80
2022/06/17 08:38:51;;;;;;;17.55;7.28;;;23.80;79.60;;;;;;5064005;28;20056;-78
2022/06/17 08:41:20;;;;;;;17.90;7.47;;;23.90;77.90;;;;;;5063171;28;20041;-79
2022/06/17 08:44:00;;;;;;;16.17;7.40;;;23.90;79.50;;;;;;5071126;28;20055;-80
2022/06/17 08:46:55;;;;;;;15.70;6.93;;;24.10;78.70;;;;;;5074325;28;20112;-78
2022/06/17 08:49:58;;;;;;;14.10;6.75;;;24.40;80.10;;;;;;5075844;28;20045;-78
2022/06/17 08:52:52;;;;;;;16.67;7.10;;;24.70;78.10;;;;;;5075293;28;20044;-77
2022/06/17 08:55:49;;;;;;;16.30;7.75;;;24.50;75.80;;;;;;5073066;28;20054;-79
2022/06/17 08:58:39;;;;;;;17.75;7.10;;;24.40;77.10;;;;;;5080915;28;20056;-78
2022/06/17 09:01:43;;;;;;;17.00;7.75;;;24.40;76.50;;;;;;5077431;28;20045;-78
2022/06/17 09:04:43;;;;;;;22.85;7.65;;;24.40;74.50;;;;;;5078625;28;20044;-80
2022/06/17 09:07:39;;;;;;;16.98;8.52;;;24.20;76.30;;;;;;5064646;28;20109;-79
2022/06/17 09:10:05;;;;;;;;;;;24.20;76.40;;;;;;5073160;28;20071;-77
2022/06/17 09:13:03;;;;;;;18.52;8.07;;;24.10;76.70;;;;;;5093454;28;19920;-77
2022/06/17 09:15:46;;;;;;;22.35;8.43;;;23.70;76.60;;;;;;5084931;28;20057;-79
2022/06/17 09:18:37;;;;;;;22.02;8.60;;;23.90;77.30;;;;;;5066193;28;20528;-78
2022/06/17 09:21:14;;;;;;;29.65;8.57;;;23.80;78.40;;;;;;5093777;28;20123;-78
2022/06/17 09:23:41;;;;;;;23.52;9.68;;;23.90;78.80;;;;;;5084379;28;20052;-78
2022/06/17 09:26:40;;;;;;;16.30;8.75;;;24.00;77.90;;;;;;5111329;28;20044;-80
2022/06/17 09:29:14;;;;;;;19.40;8.40;;;24.20;77.60;;;;;;5066983;28;20092;-78
2022/06/17 09:31:50;;;;;;;25.45;9.00;;;24.50;78.00;;;;;;5075657;28;20384;-79
2022/06/17 09:34:42;;;;;;;14.93;7.63;;;24.50;76.20;;;;;;5077524;28;20049;-78
2022/06/17 09:37:20;;;;;;;16.60;7.60;;;24.70;75.80;;;;;;5072816;28;20053;-80
2022/06/17 09:40:03;;;;;;;17.48;7.85;;;25.00;76.00;;;;;;5078744;28;20068;-79
2022/06/17 09:42:39;;;;;;;18.17;8.15;;;25.30;76.00;;;;;;5068786;28;20480;-79
2022/06/17 09:45:27;;;;;;;19.60;8.32;;;25.40;73.20;;;;;;5058905;28;20056;-79
2022/06/17 09:48:04;;;;;;;15.75;8.45;;;25.50;71.90;;;;;;5066597;28;20044;-79
2022/06/17 09:50:41;;;;;;;24.77;7.50;;;25.40;72.00;;;;;;5079661;28;20163;-79
2022/06/17 09:53:14;;;;;;;17.42;8.15;;;25.50;72.90;;;;;;5074753;28;20194;-83
2022/06/17 09:55:47;;;;;;;18.88;7.95;;;25.50;73.30;;;;;;5098898;28;20196;-78
2022/06/17 09:58:28;;;;;;;19.60;7.53;;;25.70;73.40;;;;;;5095688;28;20036;-79
2022/06/17 10:00:56;;;;;;;16.92;6.85;;;26.00;72.30;;;;;;5080331;28;20093;-80
2022/06/17 10:03:33;;;;;;;17.75;7.30;;;26.00;71.30;;;;;;5065253;28;20048;-78
2022/06/17 10:06:36;;;;;;;15.35;7.05;;;26.20;68.10;;;;;;5056850;28;20052;-76
2022/06/17 10:09:25;;;;;;;16.90;7.32;;;26.00;67.90;;;;;;5068461;28;20045;-78
2022/06/17 10:12:28;;;;;;;13.63;6.53;;;26.30;65.70;;;;;;5036083;28;20082;-80
2022/06/17 10:15:09;;;;;;;14.55;7.07;;;26.40;67.20;;;;;;5073970;28;20329;-79
2022/06/17 10:20:34;;;;;;;21.00;6.97;;;26.60;65.80;;;;;;5076884;28;20044;-81
2022/06/17 10:23:30;;;;;;;18.70;6.93;;;26.30;66.30;;;;;;5075967;28;20397;-79
2022/06/17 10:26:41;;;;;;;18.73;7.00;;;26.50;65.40;;;;;;5066262;28;20064;-75
2022/06/17 10:29:28;;;;;;;13.75;6.85;;;26.50;65.60;;;;;;5059225;28;20048;-80
2022/06/17 10:31:53;;;;;;;11.55;5.80;;;26.80;65.10;;;;;;5056429;28;20053;-79
2022/06/17 10:34:29;;;;;;;12.57;6.70;;;26.80;65.80;;;;;;5057289;28;20045;-80
2022/06/17 10:36:59;;;;;;;17.30;6.97;;;26.80;63.60;;;;;;5055792;28;20041;-80
2022/06/17 10:39:28;;;;;;;15.52;6.45;;;27.00;64.30;;;;;;5053992;28;20118;-78
2022/06/17 10:41:56;;;;;;;16.17;7.50;;;27.20;63.10;;;;;;5053305;28;20079;-81
2022/06/17 10:44:25;;;;;;;17.63;6.90;;;26.80;63.70;;;;;;5056255;28;20036;-81
2022/06/17 10:47:11;;;;;;;14.02;7.03;;;27.10;64.30;;;;;;5054621;28;20052;-80
2022/06/17 10:49:49;;;;;;;13.73;7.68;;;27.00;62.20;;;;;;5074211;28;20040;-80
2022/06/17 10:52:40;;;;;;;17.60;6.88;;;26.70;63.10;;;;;;5077189;28;20135;-81
2022/06/17 10:55:17;;;;;;;15.95;6.35;;;26.90;63.10;;;;;;5048671;28;20056;-77
2022/06/17 10:58:05;;;;;;;15.48;7.13;;;27.00;61.70;;;;;;5056652;28;20094;-80
2022/06/17 11:00:32;;;;;;;15.63;6.75;;;26.90;61.70;;;;;;5058319;28;20041;-79
2022/06/17 11:03:35;;;;;;;17.80;6.72;;;27.00;60.50;;;;;;5059258;28;20053;-81
2022/06/17 11:06:09;;;;;;;22.38;7.63;;;27.00;60.40;;;;;;5076265;28;20661;-79
2022/06/17 11:08:53;;;;;;;15.35;7.03;;;27.30;61.00;;;;;;5073958;28;20163;-80
2022/06/17 11:14:29;;;;;;;17.23;7.88;;;27.50;60.80;;;;;;5054430;28;20045;-78
2022/06/17 11:16:55;;;;;;;20.63;7.45;;;27.50;59.10;;;;;;5057577;28;20049;-78
2022/06/17 11:19:23;;;;;;;24.70;7.72;;;27.50;60.30;;;;;;5057408;28;20045;-79
2022/06/17 11:22:03;;;;;;;20.27;7.75;;;27.20;62.40;;;;;;5054568;28;20080;-79
2022/06/17 11:24:38;;;;;;;20.17;8.23;;;27.20;63.10;;;;;;5067126;28;20091;-79
2022/06/17 11:27:25;;;;;;;14.05;7.97;;;27.00;61.30;;;;;;5054748;28;20037;-79
2022/06/17 11:29:53;;;;;;;17.65;8.65;;;27.20;61.50;;;;;;5039535;28;20095;-79
2022/06/17 11:32:24;;;;;;;15.10;8.20;;;27.50;60.70;;;;;;5058189;28;20060;-80
2022/06/17 11:34:54;;;;;;;13.40;7.13;;;27.30;60.30;;;;;;5056745;28;20052;-80
2022/06/17 11:37:27;;;;;;;18.95;8.13;;;27.30;60.20;;;;;;5060708;28;20107;-79
2022/06/17 11:40:14;;;;;;;16.70;8.20;;;27.30;61.00;;;;;;5066446;28;20482;-81
2022/06/17 11:43:03;;;;;;;19.00;8.40;;;27.30;60.30;;;;;;5054804;28;20061;-78
2022/06/17 11:45:31;;;;;;;17.67;7.88;;;27.20;60.00;;;;;;5055955;28;20041;-81
2022/06/17 11:48:15;;;;;;;19.70;8.32;;;26.90;60.40;;;;;;5057370;28;20108;-85
2022/06/17 11:50:59;;;;;;;16.83;8.70;;;26.60;60.00;;;;;;5090228;28;20133;-82
2022/06/17 11:53:27;;;;;;;18.05;8.63;;;26.70;59.90;;;;;;5067364;28;20072;-79
2022/06/17 11:55:53;;;;;;;16.23;8.00;;;26.60;61.20;;;;;;5077567;28;20504;-81
2022/06/17 11:58:20;;;;;;;16.02;8.80;;;26.80;62.00;;;;;;5070866;28;20037;-82
2022/06/17 12:00:51;;;;;;;20.08;8.77;;;26.90;61.50;;;;;;5058904;28;20049;-80
2022/06/17 12:03:39;;;;;;;17.27;7.55;;;27.20;61.20;;;;;;5039763;28;20049;-77
2022/06/17 12:06:18;;;;;;;19.13;8.35;;;27.60;58.40;;;;;;5039424;28;20126;-80
2022/06/17 12:08:52;;;;;;;15.57;7.40;;;27.60;56.60;;;;;;5053232;28;20053;-83
2022/06/17 12:11:32;;;;;;;16.58;7.80;;;27.60;58.30;;;;;;5075695;28;20054;-77
2022/06/17 12:14:01;;;;;;;15.43;7.13;;;27.90;55.70;;;;;;5057364;28;20076;-82
2022/06/17 12:16:42;;;;;;;13.48;6.90;;;27.90;54.20;;;;;;5062376;28;20115;-82
2022/06/17 12:19:23;;;;;;;17.45;6.88;;;27.90;55.30;;;;;;5059833;28;20482;-81
2022/06/17 12:21:57;;;;;;;20.58;7.32;;;27.70;56.00;;;;;;5076919;28;20041;-82
2022/06/17 12:24:45;;;;;;;13.55;6.82;;;27.80;57.00;;;;;;5064249;28;20045;-81
2022/06/17 12:27:36;;;;;;;19.55;7.20;;;27.90;56.00;;;;;;5060985;28;20037;-80
2022/06/17 12:30:06;;;;;;;13.40;6.32;;;27.70;56.20;;;;;;5058661;28;20049;-81
2022/06/17 12:32:51;;;;;;;15.57;7.40;;;27.60;57.00;;;;;;5094932;28;20053;-80
2022/06/17 12:35:21;;;;;;;17.25;7.95;;;27.70;57.40;;;;;;5069612;28;20049;-79
2022/06/17 12:38:05;;;;;;;16.30;7.97;;;27.80;57.00;;;;;;5078571;28;20044;-77
2022/06/17 12:40:53;;;;;;;12.43;7.63;;;28.00;55.90;;;;;;5111956;28;20052;-81
2022/06/17 12:43:22;;;;;;;13.20;6.70;;;28.00;55.40;;;;;;5084415;28;20664;-77
2022/06/17 12:46:04;;;;;;;14.32;7.22;;;27.90;57.20;;;;;;5079659;28;20045;-79
2022/06/17 12:48:45;;;;;;;13.75;6.80;;;28.00;55.50;;;;;;5107895;28;20135;-79
2022/06/17 12:54:48;;;;;;;13.00;6.82;;;27.80;56.10;;;;;;5064205;28;20052;-78
2022/06/17 12:57:32;;;;;;;18.08;7.30;;;28.10;56.70;;;;;;5060507;28;20240;-78
2022/06/17 13:00:21;;;;;;;14.55;6.55;;;28.20;56.40;;;;;;5054535;28;20079;-79
2022/06/17 13:03:06;;;;;;;16.92;6.75;;;28.20;55.40;;;;;;5098126;28;20334;-78
2022/06/17 13:05:43;;;;;;;16.17;6.40;;;28.00;54.20;;;;;;5095042;28;20633;-78
2022/06/17 13:08:20;;;;;;;14.45;6.65;;;28.30;53.50;;;;;;5098772;28;20074;-78
2022/06/17 13:11:10;;;;;;;14.85;6.97;;;28.40;54.00;;;;;;5060340;28;20049;-77
2022/06/17 13:13:48;;;;;;;13.65;6.65;;;28.40;53.40;;;;;;5072193;28;20086;-80
2022/06/17 13:16:26;;;;;;;15.00;7.03;;;28.60;53.20;;;;;;5077577;28;20075;-78